Latest Coastal Weather Observations for Nullarbor

IDS60701

Issued at 7:11 pm CST Friday 1 July 2016 (issued every 10 minutes, with the page automatically refreshed every 10 minutes)

About coastal observations | Map of coastal stations | Coastal observations for SA | Marine services | Other Formats
Station Details ID: 018106 Name: NULLARBOR Lat: -31.45 Lon: 130.90 Height: 64.0 m
Data from the previous 72 hours. | See also: Recent months at Nullarbor
Date/Time
CST
Temp
°C
Wind Pressure Rain since
9am
mm
Weather Cloud Vis
km
Sea
Height
m
Swell
Dir  Spd
kts
Gust
kts
hPa Trend Height
m
Period
s
Dir
01/07:00pm 12.4 CALM 0 0 1030.0 - 0.0 - Partly cloudy 10 - - - -
01/06:30pm 12.4 SSE 3 5 1029.7 - 0.0 - Partly cloudy 10 - - - -
01/06:28pm 12.4 SSE 4 5 1029.6 - 0.0 - Partly cloudy 10 - - - -
01/06:06pm 12.7 SSW 8 10 1029.5 - 0.0 - Partly cloudy 7 - - - -
01/06:00pm 13.3 SSW 7 8 1029.4 - 0.0 - Cloudy 10 - - - -
01/05:30pm 14.3 S 3 4 1029.1 - 0.0 - Partly cloudy 10 - - - -
01/05:00pm 14.9 SSW 4 5 1028.9 - 0.0 - Cloudy 10 - - - -
01/04:30pm 15.1 SSE 3 5 1028.6 - 0.0 - Partly cloudy 10 - - - -
01/04:00pm 15.0 SW 2 4 1028.6 - 0.0 - Cloudy 10 - - - -
01/03:30pm 15.2 W 4 6 1028.4 - 0.0 - Cloudy 10 - - - -
01/03:00pm 15.4 W 3 6 1028.3 - 0.0 - Cloudy 10 - - - -
01/02:30pm 15.4 WSW 6 8 1028.5 - 0.0 - Cloudy 10 - - - -
01/02:00pm 15.3 WNW 4 6 1028.6 - 0.0 - Cloudy 10 - - - -
01/01:30pm 14.9 WNW 6 9 1029.1 - 0.0 - Cloudy 10 - - - -
01/01:00pm 14.9 W 7 9 1029.5 - 0.0 - Cloudy 10 - - - -
01/12:30pm 14.6 WNW 6 8 1029.9 - 0.0 - Cloudy 10 - - - -
01/12:00pm 14.2 WNW 6 8 1030.2 - 0.0 - Cloudy 10 - - - -
01/11:30am 14.2 NW 6 9 1030.3 - 0.0 - Cloudy 10 - - - -
01/11:00am 13.8 NW 5 7 1030.2 - 0.0 - Cloudy 10 - - - -
01/10:30am 13.2 NW 5 6 1030.2 - 0.0 - Cloudy 10 - - - -
01/10:00am 12.7 NW 5 6 1030.1 - 0.0 - Cloudy 10 - - - -
01/09:30am 12.0 N 5 6 1029.9 - 0.0 - Cloudy 10 - - - -
01/09:00am 11.2 NNW 4 5 1029.7 - 1.2 - Cloudy 10 - - - -
01/08:30am 10.7 NW 5 7 1029.5 - 1.2 - Cloudy 10 - - - -
01/08:00am 10.5 NNW 5 6 1029.2 - 1.2 - Cloudy 10 - - - -
01/07:30am 11.3 W 5 7 1028.8 - 1.2 - Cloudy 10 - - - -
01/07:00am 11.0 WSW 4 6 1028.5 - 1.2 - Cloudy 10 - - - -
01/06:30am 10.5 WSW 4 5 1028.1 - 1.2 - Cloudy 10 - - - -
01/06:00am 10.2 W 6 7 1027.7 - 1.2 - Mostly cloudy 10 - - - -
01/05:30am 10.7 W 7 7 1027.5 - 1.2 - Cloudy 10 - - - -
01/05:00am 10.3 WNW 5 8 1027.3 - 1.2 - Cloudy 10 - - - -
01/04:30am 10.3 WNW 5 6 1027.2 - 1.2 - Cloudy 10 - - - -
01/04:00am 10.2 WNW 5 26 1027.0 - 1.2 - Cloudy 10 - - - -
01/03:30am 10.4 WSW 4 6 1026.8 - 1.2 - Cloudy 10 - - - -
01/03:00am 10.3 NW 5 7 1026.8 - 1.2 - Cloudy 10 - - - -
01/02:30am 10.2 W 4 5 1026.6 - 1.2 - Cloudy 10 - - - -
01/02:00am 10.4 W 5 6 1026.5 - 1.2 - Cloudy 10 - - - -
01/01:30am 10.1 WSW 5 6 1026.3 - 1.2 - Cloudy 10 - - - -
01/01:00am 10.1 W 5 6 1026.3 - 1.2 - Cloudy 10 - - - -
01/12:30am 9.9 W 5 6 1026.5 - 1.2 - Cloudy 10 - - - -
01/12:00am 9.7 W 5 6 1026.4 - 1.2 - Cloudy 10 - - - -
 
Date/Time
CST
Temp
°C
Wind Pressure Rain since
9am
mm
Weather Cloud Vis
km
Sea
Height
m
Swell
Dir  Spd
kts
Gust
kts
hPa Trend Height
m
Period
s
Dir
30/11:30pm 9.0 WNW 5 6 1026.4 - 1.2 - Cloudy 10 - - - -
30/11:00pm 9.3 W 6 7 1026.4 - 1.2 - Partly cloudy 10 - - - -
30/10:30pm 9.8 W 5 6 1026.2 - 1.2 - Partly cloudy 10 - - - -
30/10:00pm 9.5 WNW 6 7 1026.1 - 1.2 - - 10 - - - -
30/09:30pm 10.1 NW 5 6 1025.9 - 1.2 - Partly cloudy 10 - - - -
30/09:00pm 10.7 NW 5 7 1025.7 - 1.2 - Cloudy 10 - - - -
30/08:30pm 10.6 NW 5 6 1025.5 - 1.2 - Partly cloudy 10 - - - -
30/08:00pm 11.4 WNW 3 4 1025.3 - 1.2 - Partly cloudy 10 - - - -
30/07:30pm 11.6 CALM 0 0 1025.0 - 1.2 - Partly cloudy 10 - - - -
30/07:17pm 12.3 SW 3 4 1024.8 - 1.2 - Partly cloudy 10 - - - -
30/07:00pm 12.4 SW 8 12 1024.8 - 1.2 - Partly cloudy 4 - - - -
30/06:55pm 12.5 WSW 5 12 1024.8 - 1.0 - Partly cloudy 6 - - - -
30/06:30pm 12.6 WSW 3 5 1024.3 - 0.6 - Partly cloudy 10 - - - -
30/06:00pm 13.1 W 5 6 1023.7 - 0.6 - Partly cloudy 10 - - - -
30/05:30pm 13.5 WSW 4 5 1023.6 - 0.6 - Partly cloudy 10 - - - -
30/05:00pm 13.4 SSW 5 6 1023.3 - 0.6 - Partly cloudy 10 - - - -
30/04:30pm 13.2 SSW 14 19 1023.1 - 0.6 - Partly cloudy 10 - - - -
30/04:24pm 13.4 SSW 13 19 1023.0 - 0.6 - Partly cloudy 10 - - - -
30/04:08pm 14.5 SW 10 15 1022.7 - 0.6 - Partly cloudy 7 - - - -
30/04:00pm 14.8 SW 9 13 1022.7 - 0.6 - Partly cloudy 10 - - - -
30/03:30pm 14.2 SW 11 13 1022.7 - 0.6 - Partly cloudy 10 - - - -
30/03:25pm 13.9 SW 11 14 1022.8 - 0.6 - Partly cloudy 10 - - - -
30/03:00pm 13.2 SW 17 24 1022.6 - 0.4 - Cloudy 10 - - - -
30/02:45pm 13.4 WSW 20 28 1022.5 - 0.4 - Partly cloudy 7 - - - -
30/02:37pm 15.1 WSW 15 28 1022.2 - 0.4 - Partly cloudy 10 - - - -
30/02:30pm 16.6 WSW 14 19 1022.1 - 0.4 - Partly cloudy 10 - - - -
30/02:00pm 16.4 SW 12 16 1022.4 - 0.4 - Partly cloudy 10 - - - -
30/01:30pm 16.6 WSW 14 19 1022.5 - 0.4 - Partly cloudy 10 - - - -
30/01:00pm 16.7 SW 14 19 1022.7 - 0.4 - Partly cloudy 10 - - - -
30/12:30pm 16.6 WSW 13 19 1023.0 - 0.4 - Partly cloudy 10 - - - -
30/12:00pm 15.5 W 12 16 1023.4 - 0.4 - Partly cloudy 10 - - - -
30/11:30am 14.3 WNW 9 11 1023.6 - 0.4 - Partly cloudy 10 - - - -
30/11:05am 13.9 W 11 15 1023.5 - 0.4 - Partly cloudy 10 - - - -
30/11:04am 13.8 W 12 15 1023.6 - 0.4 - Partly cloudy 10 - - - -
30/11:00am 13.8 W 12 15 1023.6 - 0.4 - Partly cloudy 10 - - - -
30/10:52am 13.6 W 11 15 1023.6 - 0.4 - Partly cloudy 7 - - - -
30/10:48am 13.7 WNW 10 15 1023.5 - 0.4 - Partly cloudy 7 - - - -
30/10:30am 13.2 WNW 9 11 1023.4 - 0.4 - Partly cloudy 10 - - - -
30/10:09am 12.1 WNW 8 11 1023.4 - 0.4 - Partly cloudy 10 - - - -
30/10:00am 11.6 WNW 9 11 1023.4 - 0.4 - Partly cloudy 9 - - - -
30/09:32am 11.3 WNW 9 13 1023.0 - 0.0 - Partly cloudy 7 - - - -
30/09:30am 11.3 WNW 9 11 1023.0 - 0.0 - Partly cloudy 10 - - - -
30/09:00am 10.5 NW 9 11 1022.3 - 1.4 - - 10 - - - -
30/08:30am 9.9 WNW 8 10 1022.1 - 1.4 - Partly cloudy 10 - - - -
30/08:00am 9.0 WNW 7 8 1021.7 - 1.4 - Partly cloudy 10 - - - -
30/07:30am 9.0 WNW 6 8 1021.4 - 1.4 - Partly cloudy 10 - - - -
30/07:00am 9.5 NW 7 9 1020.9 - 1.2 - Partly cloudy 10 - - - -
30/06:56am 9.7 NW 8 10 1020.9 - 1.2 - Partly cloudy 10 - - - -
30/06:35am 10.0 WNW 8 10 1020.8 - 0.8 - Partly cloudy 5 - - - -
30/06:30am 9.8 NW 8 9 1020.5 - 0.4 - Partly cloudy 10 - - - -
30/06:00am 9.9 WNW 9 11 1020.1 - 0.4 - Partly cloudy 10 - - - -
30/05:30am 9.6 WNW 9 11 1020.0 - 0.4 - Partly cloudy 10 - - - -
30/05:00am 9.5 WNW 8 9 1019.6 - 0.4 - - 10 - - - -
30/04:30am 9.8 WNW 7 9 1019.2 - 0.4 - - 10 - - - -
30/04:00am 9.6 NW 7 9 1019.0 - 0.4 - - 10 - - - -
30/03:30am 9.8 NW 7 8 1018.7 - 0.4 - - 10 - - - -
30/03:00am 10.7 WNW 6 7 1018.5 - 0.2 - Mostly clear 10 - - - -
30/02:30am 11.4 WNW 8 10 1018.6 - 0.2 - Partly cloudy 10 - - - -
30/02:00am 11.0 WNW 8 9 1018.5 - 0.2 - Partly cloudy 10 - - - -
30/01:30am 11.4 NW 7 9 1018.5 - 0.2 - - 10 - - - -
30/01:00am 11.7 NW 7 7 1018.6 - 0.2 - - 10 - - - -
30/12:30am 12.5 NW 7 8 1018.4 - 0.2 - Partly cloudy 10 - - - -
30/12:00am 12.8 NW 6 7 1018.3 - 0.2 - Mostly cloudy 10 - - - -
 
Date/Time
CST
Temp
°C
Wind Pressure Rain since
9am
mm
Weather Cloud Vis
km
Sea
Height
m
Swell
Dir  Spd
kts
Gust
kts
hPa Trend Height
m
Period
s
Dir
29/11:30pm 12.9 WNW 5 6 1018.2 - 0.2 - Partly cloudy 10 - - - -
29/11:00pm 12.9 NNW 7 8 1018.0 - 0.2 - Partly cloudy 10 - - - -
29/10:30pm 13.9 W 7 9 1018.0 - 0.0 - Partly cloudy 8 - - - -
29/10:00pm 13.8 W 7 8 1017.7 - 0.0 - Partly cloudy 10 - - - -
29/09:30pm 14.2 WSW 7 9 1017.4 - 0.0 - Partly cloudy 10 - - - -
29/09:00pm 14.6 W 12 16 1017.2 - 0.0 - Cloudy 10 - - - -
29/08:30pm 13.7 NNW 9 11 1016.3 - 0.0 - Partly cloudy 10 - - - -
29/08:00pm 13.9 NNW 9 11 1016.3 - 0.0 - Cloudy 10 - - - -
29/07:30pm 12.1 NNW 9 9 1016.0 - 0.0 - Partly cloudy 10 - - - -
29/07:00pm 13.8 NNW 6 7 1015.7 - 0.0 - - 10 - - - -
29/06:30pm 14.7 N 11 13 1014.6 - 0.0 - - 10 - - - -
29/06:00pm 14.5 N 8 9 1015.1 - 0.0 - Cloudy 10 - - - -
29/05:30pm 17.9 NNW 7 9 1015.2 - 0.0 - - 10 - - - -
29/05:00pm 19.8 NW 9 12 1015.1 - 0.0 - - 10 - - - -
29/04:30pm 20.5 NW 10 14 1015.2 - 0.0 - - 10 - - - -
29/04:00pm 20.6 NW 12 17 1015.2 - 0.0 - - 10 - - - -
29/03:30pm 20.2 NW 13 18 1015.1 - 0.0 - - 10 - - - -
29/03:00pm 20.3 NW 14 20 1015.3 - 0.0 - - 10 - - - -
29/02:30pm 20.0 NW 14 19 1015.4 - 0.0 - - 10 - - - -
29/02:00pm 20.0 NW 14 19 1015.7 - 0.0 - - 10 - - - -
29/01:30pm 19.2 NW 13 18 1016.1 - 0.0 - - 10 - - - -
29/01:00pm 19.0 NW 13 17 1016.6 - 0.0 - - 10 - - - -
29/12:30pm 18.1 NNW 12 16 1017.2 - 0.0 - - 10 - - - -
29/12:00pm 17.2 NNW 12 16 1017.7 - 0.0 - - 10 - - - -
29/11:30am 15.6 NNW 12 15 1018.0 - 0.0 - - 10 - - - -
29/11:00am 14.2 N 12 15 1018.2 - 0.0 - - 10 - - - -
29/10:30am 12.7 NNW 13 16 1018.7 - 0.0 - - 10 - - - -
29/10:00am 11.2 NNW 14 17 1018.6 - 0.0 - - 10 - - - -
29/09:30am 10.3 NNW 13 16 1018.5 - 0.0 - - 10 - - - -
29/09:00am 8.8 N 13 16 1018.6 - 0.0 - - 10 - - - -
29/08:30am 7.2 N 10 13 1018.3 - 0.0 - - 10 - - - -
29/08:00am 6.1 N 10 12 1018.1 - 0.0 - - 10 - - - -
29/07:30am 6.2 N 10 12 1018.0 - 0.0 - - 10 - - - -
29/07:00am 6.6 N 11 13 1017.8 - 0.0 - - 10 - - - -
29/06:30am 6.8 N 11 13 1017.5 - 0.0 - - 10 - - - -
29/06:00am 6.8 N 10 13 1017.4 - 0.0 - - 10 - - - -
29/05:30am 6.9 NNE 11 13 1017.4 - 0.0 - - 10 - - - -
29/05:00am 7.0 NNE 11 13 1017.5 - 0.0 - - 10 - - - -
29/04:30am 7.1 NNE 11 13 1017.7 - 0.0 - - 10 - - - -
29/04:00am 7.0 NNE 11 14 1017.9 - 0.0 - - 10 - - - -
29/03:30am 6.8 NNE 11 12 1018.3 - 0.0 - - 10 - - - -
29/03:00am 7.1 NNE 11 14 1018.5 - 0.0 - - 10 - - - -
29/02:30am 7.4 NNE 11 14 1018.7 - 0.0 - - 10 - - - -
29/02:00am 7.9 NNE 12 15 1018.9 - 0.0 - - 10 - - - -
29/01:30am 8.2 NNE 12 14 1019.1 - 0.0 - - 10 - - - -
29/01:00am 8.2 NNE 11 14 1019.6 - 0.0 - - 10 - - - -
29/12:30am 8.5 NNE 11 13 1019.7 - 0.0 - - 10 - - - -
29/12:00am 8.9 NNE 11 15 1019.8 - 0.0 - - 10 - - - -
 
Date/Time
CST
Temp
°C
Wind Pressure Rain since
9am
mm
Weather Cloud Vis
km
Sea
Height
m
Swell
Dir  Spd
kts
Gust
kts
hPa Trend Height
m
Period
s
Dir
28/11:30pm 9.0 NNE 11 14 1019.9 - 0.0 - - 10 - - - -
28/11:00pm 8.4 NNE 12 14 1020.4 - 0.0 - - 10 - - - -
28/10:30pm 7.2 NNE 10 12 1020.8 - 0.0 - - 10 - - - -
28/10:00pm 6.9 NNE 9 10 1021.1 - 0.0 - - 10 - - - -
28/09:30pm 7.2 NNE 9 10 1021.2 - 0.0 - - 10 - - - -
28/09:00pm 7.1 NNE 8 9 1021.2 - 0.0 - - 10 - - - -
28/08:30pm 7.7 NE 8 9 1021.2 - 0.0 - - 10 - - - -
28/08:00pm 8.3 NE 8 9 1021.2 - 0.0 - - 10 - - - -
28/07:30pm 9.0 NE 8 10 1021.0 - 0.0 - - 10 - - - -

Other Formats:

Comma delimited format used in spreadsheet applications
http://www.bom.gov.au/fwo/IDS60701/IDS60701.94651.axf

JavaScript Object Notation format (JSON) in row-major order
http://www.bom.gov.au/fwo/IDS60701/IDS60701.94651.json